createdAt,value
2019-04-16T00:01:15.610Z,2.95
2019-04-16T00:03:54.042Z,2.94
2019-04-16T00:06:31.335Z,2.95
2019-04-16T00:09:17.223Z,2.95
2019-04-16T00:11:57.102Z,2.90
2019-04-16T00:26:07.984Z,2.68
2019-04-16T00:28:40.491Z,2.64
2019-04-16T00:31:12.749Z,2.61
2019-04-16T00:33:46.767Z,2.60
2019-04-16T00:36:19.028Z,2.61
2019-04-16T00:38:54.159Z,2.59
2019-04-16T00:41:25.721Z,2.55
2019-04-16T00:43:58.304Z,2.52
2019-04-16T00:46:30.988Z,2.45
2019-04-16T00:49:03.562Z,2.41
2019-04-16T00:51:36.240Z,2.40
2019-04-16T00:54:10.453Z,2.47
2019-04-16T00:56:43.533Z,2.49
2019-04-16T00:59:17.042Z,2.49
2019-04-16T01:01:49.626Z,2.47
2019-04-16T01:04:22.296Z,2.43
2019-04-16T01:06:54.874Z,2.39
2019-04-16T01:09:27.761Z,2.38
2019-04-16T01:12:00.335Z,2.33
2019-04-16T01:14:34.345Z,2.33
2019-04-16T01:17:07.251Z,2.29
2019-04-16T01:19:41.174Z,2.25
2019-04-16T01:22:16.078Z,2.24
2019-04-16T01:24:51.951Z,2.22
2019-04-16T01:27:28.794Z,2.19
2019-04-16T01:30:05.117Z,2.18
2019-04-16T01:32:37.132Z,2.17
2019-04-16T01:35:27.316Z,2.17
2019-04-16T01:38:14.744Z,2.14
2019-04-16T01:40:50.306Z,2.09
2019-04-16T01:43:25.779Z,2.03
2019-04-16T01:46:01.284Z,1.99
2019-04-16T01:48:38.730Z,1.92
2019-04-16T01:51:08.793Z,1.87
2019-04-16T01:53:41.368Z,1.82
2019-04-16T01:56:13.940Z,1.79
2019-04-16T01:58:46.427Z,1.75
2019-04-16T02:01:18.989Z,1.72
2019-04-16T02:03:51.570Z,1.68
2019-04-16T02:06:25.943Z,1.62
2019-04-16T02:09:01.855Z,1.60
2019-04-16T02:11:31.621Z,1.55
2019-04-16T02:14:05.259Z,1.48
2019-04-16T02:16:37.840Z,1.48
2019-04-16T02:19:10.303Z,1.51
2019-04-16T02:21:42.875Z,1.49
2019-04-16T02:24:18.579Z,1.46
2019-04-16T02:26:54.505Z,1.43
2019-04-16T02:29:23.890Z,1.38
2019-04-16T02:31:56.568Z,1.38
2019-04-16T02:34:28.691Z,1.38
2019-04-16T02:37:03.238Z,1.41
2019-04-16T02:39:47.869Z,1.38
2019-04-16T02:42:09.843Z,1.32
2019-04-16T02:44:48.515Z,1.30
2019-04-16T02:47:16.751Z,1.28
2019-04-16T02:49:48.977Z,1.24
2019-04-16T02:52:38.166Z,1.19
2019-04-16T02:55:14.953Z,1.19
2019-04-16T02:58:05.502Z,1.19
2019-04-16T03:00:42.730Z,1.14
2019-04-16T03:03:25.751Z,1.09
2019-04-16T03:06:01.025Z,1.07
2019-04-16T03:08:36.229Z,1.05
2019-04-16T03:11:07.681Z,1.01
2019-04-16T03:13:40.576Z,0.93
2019-04-16T03:16:21.542Z,0.96
2019-04-16T03:18:55.650Z,0.90
2019-04-16T03:21:28.267Z,0.88
2019-04-16T03:24:00.477Z,0.87
2019-04-16T03:26:33.898Z,0.84
2019-04-16T03:29:06.578Z,0.83
2019-04-16T03:31:39.256Z,0.80
2019-04-16T03:34:11.934Z,0.78
2019-04-16T03:36:44.609Z,0.77
2019-04-16T03:39:17.190Z,0.75
2019-04-16T03:41:49.786Z,0.73
2019-04-16T03:44:22.452Z,0.70
2019-04-16T03:46:55.019Z,0.66
2019-04-16T03:49:28.404Z,0.68
2019-04-16T03:52:01.204Z,0.67
2019-04-16T03:54:33.881Z,0.64
2019-04-16T03:57:06.817Z,0.65
2019-04-16T03:59:40.683Z,0.64
2019-04-16T04:02:15.281Z,0.55
2019-04-16T04:04:48.893Z,0.58
2019-04-16T04:07:21.565Z,0.61
2019-04-16T04:09:55.181Z,0.61
2019-04-16T04:12:29.091Z,0.59
2019-04-16T04:15:01.761Z,0.59
2019-04-16T04:17:35.694Z,0.58
2019-04-16T04:20:10.153Z,0.58
2019-04-16T04:22:42.773Z,0.58
2019-04-16T04:25:15.453Z,0.57
2019-04-16T04:27:48.126Z,0.59
2019-04-16T04:30:22.343Z,0.62
2019-04-16T04:32:54.922Z,0.66
2019-04-16T04:35:28.721Z,0.72
2019-04-16T04:38:03.953Z,0.78
2019-04-16T04:40:44.467Z,0.89
2019-04-16T04:43:10.075Z,0.89
2019-04-16T04:45:42.711Z,0.99
2019-04-16T04:48:15.393Z,1.14
2019-04-16T04:50:49.097Z,1.14
2019-04-16T04:53:21.687Z,1.19
2019-04-16T04:55:54.478Z,1.24
2019-04-16T04:58:33.702Z,1.33
2019-04-16T05:01:02.984Z,1.34
2019-04-16T05:03:41.093Z,1.53
2019-04-16T05:06:21.146Z,1.53
2019-04-16T05:08:53.830Z,1.59
2019-04-16T05:11:26.400Z,1.62
2019-04-16T05:14:00.413Z,1.69
2019-04-16T05:16:34.311Z,1.79
2019-04-16T05:19:06.875Z,1.87
2019-04-16T05:21:39.375Z,1.90
2019-04-16T05:24:11.945Z,2.07
2019-04-16T05:26:44.521Z,2.16
2019-04-16T05:29:18.678Z,2.31
2019-04-16T05:31:51.320Z,2.44
2019-04-16T05:34:24.305Z,2.51
2019-04-16T05:36:57.193Z,2.70
2019-04-16T05:39:29.770Z,2.76
2019-04-16T05:42:04.488Z,2.95
2019-04-16T05:44:37.166Z,3.09
2019-04-16T05:47:09.743Z,3.22
2019-04-16T05:49:42.229Z,3.36
2019-04-16T05:52:16.983Z,3.54
2019-04-16T05:54:54.633Z,3.65
2019-04-16T05:57:31.407Z,3.73
2019-04-16T06:00:09.269Z,3.88
2019-04-16T06:02:41.682Z,4.07
2019-04-16T06:05:14.664Z,4.25
2019-04-16T06:07:47.142Z,4.31
2019-04-16T06:10:19.751Z,4.54
2019-04-16T06:13:06.018Z,4.77
2019-04-16T06:15:42.992Z,4.98
2019-04-16T06:18:37.125Z,5.13
2019-04-16T06:21:13.850Z,5.32
2019-04-16T06:24:03.444Z,5.56
2019-04-16T06:26:40.914Z,5.70
2019-04-16T06:29:29.015Z,5.95
2019-04-16T06:32:02.744Z,6.17
2019-04-16T06:34:36.975Z,6.28
2019-04-16T06:37:21.809Z,6.50
2019-04-16T06:40:13.380Z,6.59
2019-04-16T06:42:47.478Z,6.71
2019-04-16T06:45:21.648Z,6.97
2019-04-16T06:48:12.867Z,7.10
2019-04-16T06:50:43.738Z,7.27
2019-04-16T06:53:30.871Z,7.57
2019-04-16T06:56:08.741Z,7.69
2019-04-16T06:58:51.395Z,7.95
2019-04-16T07:01:37.351Z,8.18
2019-04-16T07:04:13.317Z,8.28
2019-04-16T07:07:08.395Z,8.61
2019-04-16T07:09:42.334Z,8.76
2019-04-16T07:12:20.745Z,8.85
2019-04-16T07:14:52.874Z,9.00
2019-04-16T07:17:43.819Z,9.24
2019-04-16T07:20:16.602Z,9.30
2019-04-16T07:22:52.710Z,9.50
2019-04-16T07:25:43.120Z,9.64
2019-04-16T07:28:17.370Z,9.79
2019-04-16T07:31:01.705Z,10.21
2019-04-16T07:34:00.719Z,10.21
2019-04-16T07:36:48.346Z,10.40
2019-04-16T07:39:53.189Z,10.53
2019-04-16T07:42:51.202Z,10.74
2019-04-16T07:45:15.863Z,11.08
2019-04-16T07:47:51.799Z,11.39
2019-04-16T07:50:25.915Z,11.62
2019-04-16T07:53:18.773Z,11.84
2019-04-16T07:56:02.195Z,11.74
2019-04-16T07:58:34.874Z,12.06
2019-04-16T08:01:11.145Z,12.20
2019-04-16T08:03:44.839Z,12.52
2019-04-16T08:06:17.521Z,12.75
2019-04-16T08:08:53.924Z,12.80
2019-04-16T08:11:42.857Z,12.74
2019-04-16T08:14:15.735Z,12.53
2019-04-16T08:16:51.382Z,12.71
2019-04-16T08:19:36.199Z,13.01
2019-04-16T08:22:16.503Z,13.38
2019-04-16T08:25:07.624Z,13.86
2019-04-16T08:27:40.297Z,13.31
2019-04-16T08:30:17.272Z,13.82
2019-04-16T08:32:59.171Z,13.73
2019-04-16T08:35:31.905Z,13.69
2019-04-16T08:38:04.525Z,14.01
2019-04-16T08:40:37.111Z,14.17
2019-04-16T08:43:29.540Z,14.31
2019-04-16T08:46:18.606Z,14.54
2019-04-16T08:48:54.270Z,14.80
2019-04-16T08:51:44.038Z,15.02
2019-04-16T08:54:18.194Z,14.66
2019-04-16T08:57:08.645Z,14.45
2019-04-16T08:59:42.507Z,14.75
2019-04-16T09:02:27.085Z,14.78
2019-04-16T09:05:16.838Z,14.84
2019-04-16T09:08:10.972Z,14.80
2019-04-16T09:10:48.526Z,15.55
2019-04-16T09:13:34.660Z,15.31
2019-04-16T09:16:24.541Z,15.08
2019-04-16T09:19:07.473Z,15.20
2019-04-16T09:21:43.415Z,15.61
2019-04-16T09:24:41.398Z,15.61
2019-04-16T09:27:22.572Z,15.98
2019-04-16T09:30:03.694Z,15.98
2019-04-16T09:33:02.326Z,16.04
2019-04-16T09:35:38.100Z,15.17
2019-04-16T09:38:14.910Z,15.91
2019-04-16T09:41:22.558Z,16.33
2019-04-16T09:44:12.852Z,16.41
2019-04-16T09:46:52.423Z,16.07
2019-04-16T09:49:25.390Z,16.36
2019-04-16T09:52:15.774Z,16.61
2019-04-16T09:54:48.450Z,16.44
2019-04-16T09:57:24.069Z,16.34
2019-04-16T10:00:17.115Z,16.51
2019-04-16T10:02:50.548Z,16.66
2019-04-16T10:05:23.369Z,16.89
2019-04-16T10:07:58.896Z,16.30
2019-04-16T10:10:31.765Z,16.43
2019-04-16T10:13:07.122Z,16.69
2019-04-16T10:15:39.683Z,16.35
2019-04-16T10:18:12.340Z,16.61
2019-04-16T10:20:47.539Z,16.42
2019-04-16T10:23:56.934Z,16.54
2019-04-16T10:26:30.607Z,16.64
2019-04-16T10:29:08.152Z,16.55
2019-04-16T10:31:40.812Z,16.49
2019-04-16T10:34:13.286Z,16.53
2019-04-16T10:37:00.949Z,17.24
2019-04-16T10:39:53.482Z,17.59
2019-04-16T10:42:40.685Z,17.75
2019-04-16T10:45:25.161Z,17.73
2019-04-16T10:48:12.519Z,18.20
2019-04-16T10:51:20.361Z,18.40
2019-04-16T10:54:12.704Z,18.39
2019-04-16T10:56:48.046Z,17.43
2019-04-16T10:59:48.486Z,17.49
2019-04-16T11:02:37.744Z,17.74
2019-04-16T11:05:15.295Z,17.78
2019-04-16T11:07:48.558Z,17.78
2019-04-16T11:10:38.641Z,18.30
2019-04-16T11:13:12.962Z,18.40
2019-04-16T11:16:04.348Z,18.27
2019-04-16T11:18:36.603Z,18.57
2019-04-16T11:21:27.325Z,19.07
2019-04-16T11:24:20.389Z,19.43
2019-04-16T11:26:51.935Z,19.31
2019-04-16T11:29:24.608Z,19.22
2019-04-16T11:31:57.186Z,19.03
2019-04-16T11:34:29.338Z,19.28
2019-04-16T11:37:19.643Z,19.49
2019-04-16T11:39:52.328Z,19.51
2019-04-16T11:42:25.004Z,19.73
2019-04-16T11:44:57.477Z,19.43
2019-04-16T11:47:33.880Z,18.74
2019-04-16T11:50:21.820Z,19.08
2019-04-16T11:52:57.277Z,19.55
2019-04-16T11:55:46.189Z,19.14
2019-04-16T11:58:20.536Z,19.12
2019-04-16T12:01:15.949Z,19.70
2019-04-16T12:03:50.101Z,19.20
2019-04-16T12:06:45.685Z,19.36
2019-04-16T12:09:43.002Z,19.48
2019-04-16T12:12:18.444Z,19.98
2019-04-16T12:15:08.222Z,20.04
2019-04-16T12:17:42.467Z,20.09
2019-04-16T12:20:43.696Z,20.79
2019-04-16T12:23:32.702Z,20.36
2019-04-16T12:26:16.490Z,20.67
2019-04-16T12:29:13.845Z,19.79
2019-04-16T12:31:47.790Z,19.59
2019-04-16T12:34:55.136Z,20.48
2019-04-16T12:37:45.238Z,20.42
2019-04-16T12:40:41.960Z,20.42
2019-04-16T12:43:38.617Z,20.79
2019-04-16T12:46:12.463Z,20.15
2019-04-16T12:48:59.677Z,21.00
2019-04-16T12:51:40.736Z,20.91
2019-04-16T12:54:31.687Z,21.51
2019-04-16T12:57:30.528Z,21.33
2019-04-16T13:00:39.249Z,20.90
2019-04-16T13:03:33.744Z,21.10
2019-04-16T13:06:27.002Z,21.03
2019-04-16T13:09:18.653Z,20.19
2019-04-16T13:12:09.527Z,20.27
2019-04-16T13:15:01.669Z,20.29
2019-04-16T13:17:53.492Z,20.60
2019-04-16T13:20:34.516Z,20.46
2019-04-16T13:23:28.955Z,19.82
2019-04-16T13:26:13.173Z,20.28
2019-04-16T13:28:46.604Z,21.06
2019-04-16T13:31:22.361Z,20.78
2019-04-16T13:33:55.033Z,21.01
2019-04-16T13:36:28.094Z,21.40
2019-04-16T13:39:09.096Z,21.82
2019-04-16T13:41:59.231Z,21.66
2019-04-16T13:44:46.198Z,21.81
2019-04-16T13:47:20.988Z,21.15
2019-04-16T13:50:02.708Z,21.73
2019-04-16T13:52:35.810Z,21.35
2019-04-16T13:55:10.547Z,22.35
2019-04-16T13:57:44.747Z,22.55
2019-04-16T14:00:21.628Z,22.15
2019-04-16T14:02:55.773Z,22.53
2019-04-16T14:05:28.426Z,22.23
2019-04-16T14:08:01.122Z,22.68
2019-04-16T14:10:34.083Z,22.61
2019-04-16T14:13:06.717Z,23.23
2019-04-16T14:15:44.586Z,24.07
2019-04-16T14:18:16.523Z,23.85
2019-04-16T14:20:48.807Z,22.62
2019-04-16T14:23:21.373Z,21.88
2019-04-16T14:25:53.953Z,22.68
2019-04-16T14:28:26.075Z,22.34
2019-04-16T14:30:58.694Z,22.31
2019-04-16T14:33:35.470Z,22.35
2019-04-16T14:36:09.682Z,22.63
2019-04-16T14:38:55.679Z,22.71
2019-04-16T14:41:28.252Z,22.97
2019-04-16T14:44:10.861Z,23.17
2019-04-16T14:46:43.445Z,23.46
2019-04-16T14:49:18.433Z,24.09
2019-04-16T14:51:50.232Z,22.96
2019-04-16T14:54:27.006Z,22.96
2019-04-16T14:57:01.306Z,23.06
2019-04-16T14:59:35.431Z,23.72
2019-04-16T15:02:10.193Z,23.28
2019-04-16T15:05:00.356Z,21.39
2019-04-16T15:07:32.729Z,21.55
2019-04-16T15:10:27.223Z,22.50
2019-04-16T15:13:04.199Z,22.79
2019-04-16T15:15:38.311Z,22.26
2019-04-16T15:18:21.640Z,23.02
2019-04-16T15:21:03.619Z,22.62
2019-04-16T15:23:53.624Z,21.60
2019-04-16T15:26:44.117Z,22.65
2019-04-16T15:29:23.455Z,23.40
2019-04-16T15:31:56.965Z,21.87
2019-04-16T15:34:31.166Z,21.54
2019-04-16T15:37:18.486Z,21.22
2019-04-16T15:39:59.632Z,21.47
2019-04-16T15:42:50.050Z,21.38
2019-04-16T15:45:29.080Z,21.26
2019-04-16T15:48:09.108Z,21.34
2019-04-16T15:50:59.438Z,20.74
2019-04-16T15:53:50.502Z,20.95
2019-04-16T15:56:25.475Z,20.97
2019-04-16T15:59:11.990Z,20.85
2019-04-16T16:01:55.209Z,22.08
2019-04-16T16:04:41.504Z,20.86
2019-04-16T16:07:14.594Z,20.95
2019-04-16T16:09:48.706Z,21.54
2019-04-16T16:12:23.027Z,21.71
2019-04-16T16:14:55.809Z,20.41
2019-04-16T16:17:28.386Z,20.02
2019-04-16T16:20:00.958Z,19.62
2019-04-16T16:22:33.535Z,20.00
2019-04-16T16:25:08.013Z,20.47
2019-04-16T16:27:43.901Z,20.58
2019-04-16T16:30:15.638Z,20.11
2019-04-16T16:32:48.457Z,20.85
2019-04-16T16:35:21.029Z,20.92
2019-04-16T16:37:53.605Z,21.32
2019-04-16T16:40:26.184Z,21.35
2019-04-16T16:42:58.962Z,21.80
2019-04-16T16:45:44.907Z,21.21
2019-04-16T16:48:17.532Z,20.02
2019-04-16T16:50:51.811Z,19.17
2019-04-16T16:53:28.829Z,19.36
2019-04-16T16:56:02.943Z,19.28
2019-04-16T16:58:38.868Z,19.26
2019-04-16T17:01:33.358Z,19.01
2019-04-16T17:04:09.041Z,18.97
2019-04-16T17:06:41.720Z,17.77
2019-04-16T17:09:16.037Z,15.99
2019-04-16T17:11:48.615Z,15.11
2019-04-16T17:14:23.297Z,14.58
2019-04-16T17:17:11.225Z,14.18
2019-04-16T17:19:30.545Z,13.80
2019-04-16T17:22:03.090Z,13.52
2019-04-16T17:24:36.516Z,13.38
2019-04-16T17:27:09.093Z,13.15
2019-04-16T17:29:41.770Z,13.04
2019-04-16T17:32:14.357Z,12.81
2019-04-16T17:34:46.926Z,12.64
2019-04-16T17:37:21.343Z,12.46
2019-04-16T17:39:54.841Z,12.30
2019-04-16T17:42:43.380Z,12.14
2019-04-16T17:45:27.335Z,11.97
2019-04-16T17:48:03.057Z,11.82
2019-04-16T17:50:51.398Z,11.60
2019-04-16T17:53:46.821Z,11.44
2019-04-16T17:56:37.038Z,11.29
2019-04-16T17:59:10.745Z,11.16
2019-04-16T18:02:02.773Z,11.01
2019-04-16T18:04:37.040Z,10.90
2019-04-16T18:07:21.436Z,10.77
2019-04-16T18:10:07.641Z,10.63
2019-04-16T18:12:41.851Z,10.49
2019-04-16T18:15:16.175Z,10.37
2019-04-16T18:18:00.851Z,10.26
2019-04-16T18:20:35.865Z,10.13
2019-04-16T18:23:16.019Z,9.99
2019-04-16T18:26:06.110Z,9.85
2019-04-16T18:28:53.005Z,9.69
2019-04-16T18:31:46.186Z,9.50
2019-04-16T18:34:27.992Z,9.39
2019-04-16T18:37:17.037Z,9.30
2019-04-16T18:39:49.417Z,9.23
2019-04-16T18:42:23.516Z,9.11
2019-04-16T18:44:59.069Z,9.05
2019-04-16T18:47:34.421Z,9.01
2019-04-16T18:50:11.350Z,8.90
2019-04-16T18:52:43.641Z,8.61
2019-04-16T18:55:16.347Z,8.39
2019-04-16T18:57:49.257Z,8.17
2019-04-16T19:00:28.663Z,8.04
2019-04-16T19:03:01.645Z,7.97
2019-04-16T19:05:35.452Z,7.95
2019-04-16T19:08:09.769Z,7.99
2019-04-16T19:10:42.718Z,8.13
2019-04-16T19:13:15.538Z,8.31
2019-04-16T19:15:48.379Z,8.34
2019-04-16T19:18:21.207Z,8.29
2019-04-16T19:20:54.262Z,8.26
2019-04-16T19:23:28.950Z,8.24
2019-04-16T19:26:01.904Z,8.16
2019-04-16T19:28:36.338Z,8.21
2019-04-16T19:31:09.128Z,8.26
2019-04-16T19:33:41.954Z,8.34
2019-04-16T19:36:14.474Z,8.35
2019-04-16T19:38:47.449Z,8.32
2019-04-16T19:41:24.336Z,8.28
2019-04-16T19:43:56.513Z,8.27
2019-04-16T19:46:28.904Z,8.22
2019-04-16T19:49:01.426Z,8.16
2019-04-16T19:51:34.153Z,8.14
2019-04-16T19:54:06.457Z,8.09
2019-04-16T19:56:39.143Z,7.98
2019-04-16T19:59:11.852Z,7.91
2019-04-16T20:01:45.115Z,7.84
2019-04-16T20:04:17.606Z,7.71
2019-04-16T20:06:50.242Z,7.62
2019-04-16T20:09:27.787Z,7.52
2019-04-16T20:12:00.609Z,7.37
2019-04-16T20:14:35.745Z,7.30
2019-04-16T20:17:09.495Z,7.26
2019-04-16T20:20:01.398Z,7.26
2019-04-16T20:22:35.035Z,7.30
2019-04-16T20:25:08.650Z,7.34
2019-04-16T20:27:41.324Z,7.29
2019-04-16T20:30:15.236Z,7.21
2019-04-16T20:32:47.910Z,7.19
2019-04-16T20:35:20.695Z,7.18
2019-04-16T20:37:55.057Z,7.11
2019-04-16T20:40:27.677Z,6.98
2019-04-16T20:42:59.973Z,6.88
2019-04-16T20:45:32.644Z,6.74
2019-04-16T20:48:05.388Z,6.70
2019-04-16T20:50:38.100Z,6.67
2019-04-16T20:53:10.833Z,6.58
2019-04-16T20:55:47.078Z,6.56
2019-04-16T20:58:17.878Z,6.53
2019-04-16T21:00:52.096Z,6.46
2019-04-16T21:03:24.779Z,6.48
2019-04-16T21:05:59.635Z,6.48
2019-04-16T21:08:33.208Z,6.49
2019-04-16T21:11:09.097Z,6.41
2019-04-16T21:13:40.101Z,6.34
2019-04-16T21:16:12.669Z,6.25
2019-04-16T21:18:45.248Z,6.25
2019-04-16T21:21:22.955Z,6.18
2019-04-16T21:23:51.897Z,6.18
2019-04-16T21:26:24.513Z,6.05
2019-04-16T21:29:02.351Z,6.05
2019-04-16T21:31:42.338Z,6.06
2019-04-16T21:34:29.322Z,6.06
2019-04-16T21:37:09.606Z,6.02
2019-04-16T21:39:51.291Z,5.99
2019-04-16T21:42:22.969Z,5.93
2019-04-16T21:44:55.098Z,5.88
2019-04-16T21:47:27.727Z,5.91
2019-04-16T21:50:00.411Z,5.84
2019-04-16T21:52:33.083Z,5.76
2019-04-16T21:55:08.328Z,5.70
2019-04-16T21:57:42.807Z,5.61
2019-04-16T22:00:35.597Z,5.58
2019-04-16T22:03:14.213Z,5.61
2019-04-16T22:05:48.336Z,5.61
2019-04-16T22:08:20.740Z,5.64
2019-04-16T22:10:53.382Z,5.62
2019-04-16T22:13:27.487Z,5.57
2019-04-16T22:16:00.176Z,5.55
2019-04-16T22:18:32.745Z,5.50
2019-04-16T22:21:09.803Z,5.47
2019-04-16T22:23:39.718Z,5.46
2019-04-16T22:26:18.579Z,5.52
2019-04-16T22:28:51.597Z,5.54
2019-04-16T22:31:24.921Z,5.59
2019-04-16T22:33:58.105Z,5.68
2019-04-16T22:36:30.878Z,5.73
2019-04-16T22:39:22.178Z,5.81
2019-04-16T22:41:59.103Z,5.88
2019-04-16T22:44:49.505Z,5.91
2019-04-16T22:47:23.882Z,5.93
2019-04-16T22:50:13.975Z,5.95
2019-04-16T22:52:32.311Z,5.97
2019-04-16T22:55:05.391Z,6.01
2019-04-16T22:57:38.072Z,6.03
2019-04-16T23:00:15.364Z,6.06
2019-04-16T23:02:49.571Z,6.10
2019-04-16T23:05:21.808Z,6.10
2019-04-16T23:07:54.728Z,6.12
2019-04-16T23:10:27.156Z,6.16
2019-04-16T23:13:01.437Z,6.19
2019-04-16T23:15:35.019Z,6.22
2019-04-16T23:18:08.370Z,6.24
2019-04-16T23:20:42.624Z,6.24
2019-04-16T23:23:18.153Z,6.26
2019-04-16T23:25:49.531Z,6.27
2019-04-16T23:28:22.211Z,6.31
2019-04-16T23:30:54.888Z,6.33
2019-04-16T23:33:32.560Z,6.37
2019-04-16T23:36:03.213Z,6.40
2019-04-16T23:38:35.902Z,6.41
2019-04-16T23:41:09.282Z,6.43
2019-04-16T23:43:50.532Z,6.43
2019-04-16T23:46:38.752Z,6.44
2019-04-16T23:49:29.100Z,6.47
2019-04-16T23:52:06.803Z,6.51
2019-04-16T23:54:58.205Z,6.58
2019-04-16T23:57:48.566Z,6.65
